createdAt,value
2019-05-02T00:00:12.988Z,31.23
2019-05-02T00:02:41.996Z,29.50
2019-05-02T00:05:12.138Z,31.80
2019-05-02T00:07:42.850Z,33.37
2019-05-02T00:10:14.319Z,31.20
2019-05-02T00:12:44.729Z,36.97
2019-05-02T00:15:17.092Z,34.57
2019-05-02T00:17:45.620Z,31.47
2019-05-02T00:20:16.046Z,31.27
2019-05-02T00:22:47.941Z,37.03
2019-05-02T00:25:16.055Z,33.27
2019-05-02T00:27:45.728Z,32.50
2019-05-02T00:30:15.622Z,35.73
2019-05-02T00:32:44.151Z,35.00
2019-05-02T00:35:12.975Z,35.60
2019-05-02T00:37:41.495Z,34.10
2019-05-02T00:40:10.505Z,31.87
2019-05-02T00:42:38.960Z,35.43
2019-05-02T00:45:07.706Z,34.17
2019-05-02T00:47:47.859Z,31.07
2019-05-02T00:50:17.736Z,29.10
2019-05-02T00:52:46.190Z,34.07
2019-05-02T00:55:14.740Z,32.90
2019-05-02T00:57:43.243Z,34.90
2019-05-02T01:00:13.488Z,31.73
2019-05-02T01:02:46.750Z,32.30
2019-05-02T01:05:15.284Z,35.20
2019-05-02T01:07:43.853Z,32.77
2019-05-02T01:10:17.271Z,30.10
2019-05-02T01:12:45.956Z,30.17
2019-05-02T01:15:14.547Z,32.30
2019-05-02T01:17:43.092Z,33.70
2019-05-02T01:20:11.712Z,28.47
2019-05-02T01:22:40.188Z,28.00
2019-05-02T01:25:15.022Z,32.57
2019-05-02T01:27:43.650Z,30.23
2019-05-02T01:30:16.955Z,31.57
2019-05-02T01:32:47.071Z,33.27
2019-05-02T01:35:17.187Z,26.37
2019-05-02T01:37:59.275Z,28.60
2019-05-02T01:40:27.747Z,31.23
2019-05-02T01:42:57.529Z,26.70
2019-05-02T01:45:26.056Z,30.80
2019-05-02T01:47:54.517Z,32.87
2019-05-02T01:50:22.997Z,27.57
2019-05-02T01:52:53.776Z,26.60
2019-05-02T01:55:22.902Z,26.07
2019-05-02T01:57:51.359Z,30.47
2019-05-02T02:00:19.979Z,29.43
2019-05-02T02:02:48.498Z,30.33
2019-05-02T02:05:17.108Z,31.43
2019-05-02T02:07:45.584Z,24.37
2019-05-02T02:10:14.971Z,32.43
2019-05-02T02:13:02.835Z,28.43
2019-05-02T02:15:14.979Z,29.80
2019-05-02T02:17:46.885Z,27.03
2019-05-02T02:20:17.287Z,27.73
2019-05-02T02:22:47.403Z,24.13
2019-05-02T02:25:25.433Z,24.17
2019-05-02T02:27:54.891Z,27.30
2019-05-02T02:30:26.381Z,24.43
2019-05-02T02:33:00.715Z,24.10
2019-05-02T02:35:24.546Z,26.00
2019-05-02T02:37:55.680Z,28.00
2019-05-02T02:40:32.886Z,26.43
2019-05-02T02:42:54.773Z,24.07
2019-05-02T02:45:57.695Z,28.03
2019-05-02T02:48:22.153Z,26.27
2019-05-02T02:50:50.689Z,27.23
2019-05-02T02:53:31.458Z,24.70
2019-05-02T02:56:03.520Z,22.67
2019-05-02T02:58:38.745Z,20.80
2019-05-02T03:01:01.843Z,25.93
2019-05-02T03:03:34.756Z,27.43
2019-05-02T03:06:05.866Z,22.43
2019-05-02T03:08:30.953Z,26.87
2019-05-02T03:10:59.552Z,27.37
2019-05-02T03:13:29.802Z,28.33
2019-05-02T03:16:00.322Z,29.70
2019-05-02T03:18:39.806Z,26.93
2019-05-02T03:21:00.309Z,26.87
2019-05-02T03:23:28.848Z,24.47
2019-05-02T03:25:57.307Z,24.57
2019-05-02T03:28:25.777Z,22.17
2019-05-02T03:30:54.380Z,24.27
2019-05-02T03:33:24.279Z,28.30
2019-05-02T03:35:52.943Z,22.30
2019-05-02T03:38:31.304Z,30.30
2019-05-02T03:40:51.875Z,28.60
2019-05-02T03:43:25.668Z,32.80
2019-05-02T03:45:50.949Z,32.77
2019-05-02T03:48:25.883Z,31.80
2019-05-02T03:50:50.855Z,33.60
2019-05-02T03:53:25.345Z,33.73
2019-05-02T03:55:50.354Z,29.90
2019-05-02T03:58:18.990Z,29.73
2019-05-02T04:00:47.606Z,36.23
2019-05-02T04:03:16.443Z,29.47
2019-05-02T04:05:44.924Z,33.30
2019-05-02T04:08:20.541Z,31.53
2019-05-02T04:10:52.547Z,33.03
2019-05-02T04:13:17.329Z,31.03
2019-05-02T04:15:46.408Z,30.17
2019-05-02T04:18:17.887Z,32.50
2019-05-02T04:20:50.010Z,33.33
2019-05-02T04:23:21.440Z,28.47
2019-05-02T04:25:49.383Z,32.00
2019-05-02T04:28:17.939Z,29.13
2019-05-02T04:30:51.099Z,29.87
2019-05-02T04:33:16.746Z,35.70
2019-05-02T04:35:45.261Z,30.10
2019-05-02T04:38:20.409Z,28.43
2019-05-02T04:40:46.370Z,33.93
2019-05-02T04:45:56.024Z,31.07
2019-05-02T04:48:20.332Z,31.30
2019-05-02T04:50:51.670Z,28.90
2019-05-02T04:53:25.949Z,32.00
2019-05-02T04:56:01.703Z,38.33
2019-05-02T04:58:27.658Z,33.87
2019-05-02T05:00:58.121Z,32.90
2019-05-02T05:03:22.473Z,30.20
2019-05-02T05:05:51.095Z,33.53
2019-05-02T05:08:26.468Z,29.83
2019-05-02T05:10:49.939Z,41.07
2019-05-02T05:13:22.734Z,39.30
2019-05-02T05:15:51.697Z,34.03
2019-05-02T05:18:18.971Z,35.70
2019-05-02T05:20:53.062Z,35.37
2019-05-02T05:23:21.481Z,30.50
2019-05-02T05:26:03.445Z,35.80
2019-05-02T05:28:27.378Z,34.40
2019-05-02T05:30:58.214Z,34.37
2019-05-02T05:33:28.303Z,32.13
2019-05-02T05:35:57.836Z,36.33
2019-05-02T05:38:28.527Z,32.33
2019-05-02T05:41:03.093Z,27.97
2019-05-02T05:43:33.349Z,32.13
2019-05-02T05:46:10.680Z,34.80
2019-05-02T05:48:39.209Z,41.10
2019-05-02T05:51:07.267Z,34.00
2019-05-02T05:53:37.531Z,32.83
2019-05-02T05:56:07.948Z,34.40
2019-05-02T05:58:39.768Z,33.33
2019-05-02T06:01:10.174Z,31.37
2019-05-02T06:03:41.508Z,30.10
2019-05-02T06:06:09.757Z,32.07
2019-05-02T06:08:39.397Z,35.47
2019-05-02T06:11:07.905Z,30.47
2019-05-02T06:13:38.103Z,35.90
2019-05-02T06:16:10.445Z,41.00
2019-05-02T06:18:41.866Z,38.30
2019-05-02T06:21:08.693Z,30.90
2019-05-02T06:23:41.395Z,38.33
2019-05-02T06:26:13.478Z,38.60
2019-05-02T06:28:41.581Z,33.77
2019-05-02T06:31:09.262Z,40.77
2019-05-02T06:33:40.588Z,35.00
2019-05-02T06:36:10.564Z,32.73
2019-05-02T06:38:39.187Z,35.70
2019-05-02T06:41:07.861Z,38.07
2019-05-02T06:43:36.489Z,35.53
2019-05-02T06:46:15.906Z,33.60
2019-05-02T06:48:36.382Z,38.70
2019-05-02T06:51:05.251Z,36.57
2019-05-02T06:53:35.138Z,37.07
2019-05-02T06:56:12.691Z,34.47
2019-05-02T06:58:42.016Z,31.27
2019-05-02T07:01:09.517Z,43.57
2019-05-02T07:03:41.311Z,37.87
2019-05-02T07:06:08.912Z,36.47
2019-05-02T07:08:37.489Z,38.33
2019-05-02T07:11:06.211Z,35.70
2019-05-02T07:13:36.198Z,36.77
2019-05-02T07:16:37.642Z,33.27
2019-05-02T07:19:11.486Z,34.83
2019-05-02T07:21:40.034Z,38.40
2019-05-02T07:24:11.359Z,35.63
2019-05-02T07:26:40.539Z,36.03
2019-05-02T07:29:09.051Z,37.57
2019-05-02T07:31:38.294Z,39.37
2019-05-02T07:34:08.089Z,38.23
2019-05-02T07:36:39.990Z,39.93
2019-05-02T07:39:10.374Z,37.90
2019-05-02T07:41:40.465Z,38.33
2019-05-02T07:44:09.068Z,38.47
2019-05-02T07:46:50.714Z,44.23
2019-05-02T07:49:09.207Z,41.97
2019-05-02T07:51:38.840Z,45.43
2019-05-02T07:54:07.394Z,39.37
2019-05-02T07:56:35.930Z,38.70
2019-05-02T07:59:09.203Z,38.67
2019-05-02T08:01:37.859Z,36.17
2019-05-02T08:04:10.980Z,38.47
2019-05-02T08:06:40.134Z,42.77
2019-05-02T08:09:09.286Z,42.40
2019-05-02T08:11:38.517Z,39.63
2019-05-02T08:14:07.438Z,42.87
2019-05-02T08:16:35.992Z,40.43
2019-05-02T08:19:05.480Z,43.40
2019-05-02T08:21:35.179Z,41.13
2019-05-02T08:24:05.631Z,38.83
2019-05-02T08:26:47.832Z,40.57
2019-05-02T08:29:16.635Z,42.53
2019-05-02T08:31:45.488Z,37.20
2019-05-02T08:34:15.919Z,42.87
2019-05-02T08:36:44.434Z,44.90
2019-05-02T08:39:14.445Z,44.00
2019-05-02T08:41:44.822Z,43.67
2019-05-02T08:44:16.718Z,39.37
2019-05-02T08:46:46.172Z,40.97
2019-05-02T08:49:18.604Z,40.30
2019-05-02T08:51:44.436Z,42.50
2019-05-02T08:54:12.898Z,41.67
2019-05-02T08:56:41.471Z,37.40
2019-05-02T08:59:10.383Z,43.83
2019-05-02T09:01:40.172Z,30.10
2019-05-02T09:04:08.983Z,37.73
2019-05-02T09:06:39.840Z,47.03
2019-05-02T09:09:12.751Z,39.10
2019-05-02T09:11:57.589Z,36.20
2019-05-02T09:14:15.968Z,40.90
2019-05-02T09:16:46.021Z,38.63
2019-05-02T09:19:21.302Z,41.07
2019-05-02T09:21:52.157Z,41.40
2019-05-02T09:24:23.870Z,43.20
2019-05-02T09:26:52.456Z,35.73
2019-05-02T09:29:23.799Z,34.33
2019-05-02T09:31:52.820Z,37.03
2019-05-02T09:34:26.763Z,38.70
2019-05-02T09:36:56.318Z,41.57
2019-05-02T09:39:27.344Z,47.30
2019-05-02T09:41:56.014Z,40.03
2019-05-02T09:44:24.737Z,35.60
2019-05-02T09:46:56.968Z,48.70
2019-05-02T09:49:32.514Z,41.20
2019-05-02T09:52:05.614Z,39.87
2019-05-02T09:54:42.490Z,35.93
2019-05-02T09:57:12.003Z,38.07
2019-05-02T09:59:49.881Z,43.50
2019-05-02T10:02:12.795Z,59.50
2019-05-02T10:04:43.980Z,42.90
2019-05-02T10:07:12.744Z,34.80
2019-05-02T10:09:42.447Z,38.43
2019-05-02T10:12:12.314Z,50.13
2019-05-02T10:14:42.138Z,40.03
2019-05-02T10:17:12.556Z,42.87
2019-05-02T10:19:48.874Z,36.27
2019-05-02T10:22:12.703Z,32.43
2019-05-02T10:24:42.582Z,37.30
2019-05-02T10:27:12.602Z,34.17
2019-05-02T10:29:41.852Z,36.47
2019-05-02T10:32:15.013Z,37.17
2019-05-02T10:34:42.228Z,40.17
2019-05-02T10:37:12.328Z,37.80
2019-05-02T10:39:42.308Z,37.77
2019-05-02T10:42:12.489Z,42.93
2019-05-02T10:44:42.675Z,38.60
2019-05-02T10:47:12.832Z,40.13
2019-05-02T10:49:46.134Z,39.70
2019-05-02T10:52:14.607Z,38.10
2019-05-02T10:54:43.186Z,39.87
2019-05-02T10:57:12.599Z,41.83
2019-05-02T10:59:42.065Z,38.23
2019-05-02T11:02:24.659Z,41.43
2019-05-02T11:04:57.355Z,44.57
2019-05-02T11:07:26.455Z,45.33
2019-05-02T11:09:57.188Z,41.33
2019-05-02T11:12:40.694Z,36.43
2019-05-02T11:15:22.038Z,39.00
2019-05-02T11:17:52.735Z,39.80
2019-05-02T11:20:22.462Z,38.23
2019-05-02T11:22:52.682Z,43.07
2019-05-02T11:25:22.553Z,37.57
2019-05-02T11:27:52.486Z,39.60
2019-05-02T11:30:26.568Z,38.30
2019-05-02T11:32:53.225Z,36.53
2019-05-02T11:35:22.411Z,38.77
2019-05-02T11:37:51.688Z,41.87
2019-05-02T11:40:20.335Z,39.53
2019-05-02T11:42:48.815Z,41.17
2019-05-02T11:45:17.373Z,40.77
2019-05-02T11:47:46.517Z,35.33
2019-05-02T11:50:15.111Z,40.33
2019-05-02T11:52:43.676Z,45.80
2019-05-02T11:55:12.899Z,36.13
2019-05-02T11:57:42.620Z,44.80
2019-05-02T12:00:12.406Z,35.80
2019-05-02T12:02:49.167Z,39.27
2019-05-02T12:05:17.543Z,39.43
2019-05-02T12:07:46.011Z,44.17
2019-05-02T12:10:15.211Z,36.70
2019-05-02T12:12:43.743Z,42.00
2019-05-02T12:15:12.559Z,39.80
2019-05-02T12:17:42.357Z,38.63
2019-05-02T12:20:11.871Z,33.17
2019-05-02T12:22:41.960Z,35.90
2019-05-02T12:25:12.652Z,38.10
2019-05-02T12:27:42.444Z,41.10
2019-05-02T12:30:11.921Z,39.00
2019-05-02T12:32:42.230Z,40.80
2019-05-02T12:35:12.370Z,32.30
2019-05-02T12:37:42.384Z,37.07
2019-05-02T12:40:12.246Z,35.47
2019-05-02T12:42:42.289Z,42.20
2019-05-02T12:45:12.355Z,38.40
2019-05-02T12:47:42.915Z,38.47
2019-05-02T12:50:12.147Z,36.20
2019-05-02T12:52:42.744Z,35.27
2019-05-02T12:55:12.778Z,40.47
2019-05-02T12:57:42.977Z,41.10
2019-05-02T13:00:13.362Z,40.30
2019-05-02T13:02:43.467Z,44.00
2019-05-02T13:05:13.179Z,36.63
2019-05-02T13:07:42.774Z,36.90
2019-05-02T13:10:13.954Z,45.40
2019-05-02T13:12:44.124Z,41.37
2019-05-02T13:15:12.965Z,40.00
2019-05-02T13:17:47.023Z,37.27
2019-05-02T13:20:13.625Z,38.80
2019-05-02T13:23:01.513Z,42.27
2019-05-02T13:25:32.780Z,42.60
2019-05-02T13:28:01.992Z,42.17
2019-05-02T13:30:46.243Z,40.97
2019-05-02T13:33:13.160Z,42.10
2019-05-02T13:35:43.279Z,40.63
2019-05-02T13:38:12.961Z,41.97
2019-05-02T13:40:43.569Z,43.60
2019-05-02T13:43:12.655Z,40.40
2019-05-02T13:45:46.319Z,39.07
2019-05-02T13:48:26.302Z,38.93
2019-05-02T13:50:54.802Z,44.33
2019-05-02T13:53:23.330Z,54.50
2019-05-02T13:55:57.829Z,40.83
2019-05-02T13:58:28.901Z,48.03
2019-05-02T14:00:56.731Z,40.07
2019-05-02T14:03:25.209Z,54.33
2019-05-02T14:05:54.005Z,41.27
2019-05-02T14:08:27.652Z,45.90
2019-05-02T14:10:59.160Z,50.23
2019-05-02T14:13:27.641Z,45.27
2019-05-02T14:15:56.279Z,47.90
2019-05-02T14:18:28.856Z,46.03
2019-05-02T14:20:55.178Z,48.47
2019-05-02T14:23:23.677Z,55.10
2019-05-02T14:25:53.374Z,47.17
2019-05-02T14:28:22.456Z,49.67
2019-05-02T14:30:52.545Z,44.50
2019-05-02T14:33:25.643Z,45.53
2019-05-02T14:35:54.146Z,50.07
2019-05-02T14:38:22.708Z,48.13
2019-05-02T14:40:56.113Z,45.70
2019-05-02T14:43:44.540Z,44.33
2019-05-02T14:46:12.726Z,45.30
2019-05-02T14:48:45.308Z,48.77
2019-05-02T14:51:16.558Z,52.30
2019-05-02T14:53:44.864Z,54.87
2019-05-02T14:56:15.053Z,48.87
2019-05-02T14:58:43.661Z,51.13
2019-05-02T15:01:16.963Z,52.70
2019-05-02T15:03:42.549Z,51.77
2019-05-02T15:06:11.700Z,48.90
2019-05-02T15:08:42.039Z,55.97
2019-05-02T15:11:12.428Z,49.97
2019-05-02T15:13:43.103Z,56.07
2019-05-02T15:16:17.669Z,51.50
2019-05-02T15:18:47.518Z,54.87
2019-05-02T15:21:18.155Z,55.43
2019-05-02T15:23:48.882Z,52.67
2019-05-02T15:26:17.596Z,48.80
2019-05-02T15:28:47.809Z,50.47
2019-05-02T15:31:32.396Z,53.50
2019-05-02T15:34:05.018Z,52.90
2019-05-02T15:36:36.929Z,52.13
2019-05-02T15:41:33.279Z,64.73
2019-05-02T15:44:02.055Z,51.43
2019-05-02T15:46:31.874Z,53.20
2019-05-02T15:49:01.791Z,48.57
2019-05-02T15:51:32.772Z,48.80
2019-05-02T15:54:08.231Z,48.80
2019-05-02T15:56:35.592Z,67.13
2019-05-02T15:59:06.165Z,49.10
2019-05-02T16:01:41.223Z,48.60
2019-05-02T16:04:12.725Z,49.20
2019-05-02T16:06:41.926Z,47.20
2019-05-02T16:09:11.839Z,45.27
2019-05-02T16:11:43.302Z,46.50
2019-05-02T16:14:12.796Z,49.30
2019-05-02T16:16:45.098Z,51.73
2019-05-02T16:19:14.689Z,47.80
2019-05-02T16:21:46.467Z,47.33
2019-05-02T16:24:23.208Z,50.37
2019-05-02T16:26:54.120Z,43.10
2019-05-02T16:29:28.133Z,46.10
2019-05-02T16:32:05.556Z,53.70
2019-05-02T16:34:35.828Z,50.77
2019-05-02T16:37:16.586Z,48.67
2019-05-02T16:39:49.045Z,53.80
2019-05-02T16:42:12.487Z,50.23
2019-05-02T16:44:44.152Z,51.33
2019-05-02T16:47:13.948Z,47.80
2019-05-02T16:49:43.212Z,48.87
2019-05-02T16:52:12.779Z,43.83
2019-05-02T16:54:44.136Z,54.33
2019-05-02T16:57:17.245Z,41.30
2019-05-02T16:59:43.661Z,41.00
2019-05-02T17:02:12.379Z,47.00
2019-05-02T17:04:42.736Z,44.80
2019-05-02T17:07:12.867Z,42.43
2019-05-02T17:09:46.841Z,46.83
2019-05-02T17:12:15.474Z,44.50
2019-05-02T17:14:53.267Z,47.90
2019-05-02T17:17:16.109Z,41.20
2019-05-02T17:19:44.668Z,48.03
2019-05-02T17:22:16.646Z,42.07
2019-05-02T17:24:43.364Z,43.13
2019-05-02T17:27:12.946Z,44.93
2019-05-02T17:29:43.286Z,42.13
2019-05-02T17:32:11.887Z,45.00
2019-05-02T17:34:42.188Z,42.27
2019-05-02T17:37:12.175Z,46.60
2019-05-02T17:39:42.712Z,42.33
2019-05-02T17:42:12.471Z,45.27
2019-05-02T17:44:41.660Z,42.40
2019-05-02T17:47:11.565Z,44.10
2019-05-02T17:49:42.299Z,45.50
2019-05-02T17:52:26.795Z,44.30
2019-05-02T17:54:52.829Z,46.83
2019-05-02T17:57:21.595Z,46.37
2019-05-02T17:59:52.019Z,49.43
2019-05-02T18:02:21.981Z,49.73
2019-05-02T18:04:52.166Z,47.33
2019-05-02T18:07:25.226Z,41.63
2019-05-02T18:09:52.404Z,46.60
2019-05-02T18:12:21.805Z,44.27
2019-05-02T18:14:58.895Z,47.07
2019-05-02T18:17:22.208Z,48.30
2019-05-02T18:19:52.114Z,44.10
2019-05-02T18:22:24.194Z,51.33
2019-05-02T18:24:52.667Z,45.47
2019-05-02T18:27:22.177Z,58.90
2019-05-02T18:29:51.654Z,45.77
2019-05-02T18:32:24.567Z,48.23
2019-05-02T18:34:51.976Z,49.07
2019-05-02T18:37:21.889Z,47.40
2019-05-02T18:39:55.669Z,36.13
2019-05-02T18:42:25.385Z,25.60
2019-05-02T18:44:53.129Z,17.10
2019-05-02T18:47:24.691Z,13.97
2019-05-02T18:50:00.903Z,15.10
2019-05-02T18:52:35.435Z,12.87
2019-05-02T18:54:54.082Z,12.67
2019-05-02T18:57:25.901Z,13.33
2019-05-02T18:59:56.402Z,17.30
2019-05-02T19:02:26.393Z,16.47
2019-05-02T19:04:54.672Z,15.10
2019-05-02T19:07:32.547Z,14.70
2019-05-02T19:09:54.027Z,11.67
2019-05-02T19:12:26.009Z,12.93
2019-05-02T19:14:57.531Z,14.23
2019-05-02T19:17:24.982Z,12.77
2019-05-02T19:19:53.439Z,13.63
2019-05-02T19:22:22.459Z,13.50
2019-05-02T19:24:52.366Z,10.70
2019-05-02T19:27:38.939Z,16.70
2019-05-02T19:30:09.101Z,14.20
2019-05-02T19:32:38.111Z,11.53
2019-05-02T19:35:07.144Z,11.87
2019-05-02T19:37:44.588Z,15.87
2019-05-02T19:40:28.402Z,18.27
2019-05-02T19:42:57.430Z,13.77
2019-05-02T19:45:27.237Z,14.63
2019-05-02T19:47:57.691Z,16.30
2019-05-02T19:50:38.963Z,14.30
2019-05-02T19:53:04.469Z,13.00
2019-05-02T19:55:32.293Z,14.20
2019-05-02T19:58:02.300Z,20.17
2019-05-02T20:00:31.849Z,18.87
2019-05-02T20:03:01.792Z,21.03
2019-05-02T20:05:32.341Z,15.10
2019-05-02T20:08:02.547Z,15.67
2019-05-02T20:10:32.128Z,12.90
2019-05-02T20:13:03.169Z,17.53
2019-05-02T20:15:32.984Z,18.57
2019-05-02T20:18:04.759Z,16.87
2019-05-02T20:20:58.498Z,23.60
2019-05-02T20:23:31.419Z,14.80
2019-05-02T20:25:57.481Z,15.77
2019-05-02T20:28:26.162Z,12.90
2019-05-02T20:30:54.707Z,14.47
2019-05-02T20:33:23.231Z,11.30
2019-05-02T20:35:52.805Z,11.90
2019-05-02T20:38:22.025Z,10.33
2019-05-02T20:40:52.189Z,10.20
2019-05-02T20:43:22.677Z,10.57
2019-05-02T20:45:52.735Z,16.63
2019-05-02T20:48:22.776Z,14.37
2019-05-02T20:50:52.027Z,11.97
2019-05-02T20:53:28.784Z,10.37
2019-05-02T20:55:52.405Z,9.63
2019-05-02T20:58:21.974Z,9.40
2019-05-02T21:01:05.004Z,10.77
2019-05-02T21:03:21.235Z,10.20
2019-05-02T21:05:53.856Z,9.50
2019-05-02T21:08:36.420Z,7.70
2019-05-02T21:11:05.524Z,11.57
2019-05-02T21:13:34.402Z,11.20
2019-05-02T21:16:03.022Z,9.03
2019-05-02T21:18:32.812Z,9.67
2019-05-02T21:21:01.483Z,7.80
2019-05-02T21:23:43.406Z,11.67
2019-05-02T21:26:01.878Z,8.17
2019-05-02T21:28:32.197Z,10.17
2019-05-02T21:31:02.809Z,10.67
2019-05-02T21:33:33.900Z,10.10
2019-05-02T21:36:02.649Z,8.10
2019-05-02T21:38:31.965Z,11.13
2019-05-02T21:41:00.899Z,14.13
2019-05-02T21:43:31.563Z,8.23
2019-05-02T21:45:59.740Z,7.87
2019-05-02T21:48:32.664Z,10.03
2019-05-02T21:51:09.050Z,11.00
2019-05-02T21:53:58.428Z,7.37
2019-05-02T21:56:37.813Z,9.37
2019-05-02T21:59:08.002Z,7.53
2019-05-02T22:01:42.248Z,9.17
2019-05-02T22:04:12.906Z,7.80
2019-05-02T22:06:42.727Z,11.80
2019-05-02T22:09:12.437Z,14.83
2019-05-02T22:11:42.990Z,8.70
2019-05-02T22:14:13.239Z,8.73
2019-05-02T22:16:42.596Z,8.17
2019-05-02T22:19:11.222Z,7.70
2019-05-02T22:21:39.779Z,15.10
2019-05-02T22:24:11.768Z,13.47
2019-05-02T22:26:43.390Z,11.80
2019-05-02T22:29:12.221Z,14.50
2019-05-02T22:31:42.859Z,15.60
2019-05-02T22:34:12.749Z,18.60
2019-05-02T22:36:41.595Z,12.90
2019-05-02T22:39:18.344Z,12.97
2019-05-02T22:41:46.824Z,8.30
2019-05-02T22:44:15.469Z,9.80
2019-05-02T22:46:44.524Z,11.47
2019-05-02T22:49:14.965Z,13.00
2019-05-02T22:51:43.881Z,10.23
2019-05-02T22:54:24.292Z,9.10
2019-05-02T22:56:42.791Z,14.33
2019-05-02T22:59:11.424Z,9.23
2019-05-02T23:01:41.960Z,12.53
2019-05-02T23:04:12.474Z,13.43
2019-05-02T23:06:43.834Z,8.40
2019-05-02T23:09:12.752Z,14.33
2019-05-02T23:11:42.584Z,12.17
2019-05-02T23:14:11.572Z,12.93
2019-05-02T23:16:42.311Z,8.13
2019-05-02T23:19:12.307Z,10.40
2019-05-02T23:21:42.184Z,9.30
2019-05-02T23:24:14.649Z,10.47
2019-05-02T23:27:01.147Z,9.77
2019-05-02T23:29:31.735Z,8.70
2019-05-02T23:31:59.931Z,9.07
2019-05-02T23:34:28.567Z,9.57
2019-05-02T23:36:57.133Z,12.17
2019-05-02T23:39:25.713Z,9.50
2019-05-02T23:41:54.345Z,12.47
2019-05-02T23:44:22.974Z,9.60
2019-05-02T23:46:51.625Z,9.37
2019-05-02T23:49:21.989Z,10.37
2019-05-02T23:51:50.479Z,9.37
2019-05-02T23:54:18.971Z,19.83
2019-05-02T23:56:47.469Z,9.40
2019-05-02T23:59:16.039Z,9.27
